Terminal Aerodrome Forecast
Issued by NWS

Home | Current Version | Previous Version | Text Only | Print | Product List | Glossary On
Versions: 1 2 3 4 5 6 7 8 9 10 11 12 13 14 15 16 17 18 19 20 21
000
FTUS42 KMLB 211120
TAFSFB
TAF
KSFB 211120Z 2112/2212 24004KT P6SM BKN150 OVC250
     FM211400 31005KT P6SM SCT015 BKN150
     FM211800 35005KT P6SM SCT040 BKN150
     FM220000 06005KT P6SM SCT050 BKN150
     FM220600 VRB02KT P6SM FEW040 BKN120=

USA.gov is the U.S. government's official web portal to all federal, state and local government web resources and services.